createdAt,value
2019-03-16T00:01:30.939Z,36.57
2019-03-16T00:04:05.009Z,35.37
2019-03-16T00:06:36.830Z,31.73
2019-03-16T00:09:10.248Z,28.57
2019-03-16T00:11:42.079Z,28.97
2019-03-16T00:14:14.254Z,29.03
2019-03-16T00:16:46.025Z,25.03
2019-03-16T00:19:17.957Z,26.70
2019-03-16T00:21:49.819Z,28.63
2019-03-16T00:24:21.621Z,23.63
2019-03-16T00:26:53.350Z,25.87
2019-03-16T00:29:25.215Z,26.17
2019-03-16T00:31:57.113Z,25.37
2019-03-16T00:34:28.967Z,24.63
2019-03-16T00:37:04.614Z,22.17
2019-03-16T00:39:36.562Z,24.60
2019-03-16T00:42:08.336Z,22.90
2019-03-16T00:44:40.147Z,23.63
2019-03-16T00:47:12.019Z,27.13
2019-03-16T00:49:43.944Z,20.63
2019-03-16T00:52:15.890Z,20.57
2019-03-16T00:54:47.768Z,22.23
2019-03-16T00:57:19.947Z,21.17
2019-03-16T00:59:51.629Z,22.77
2019-03-16T01:02:27.383Z,22.63
2019-03-16T01:04:57.123Z,20.97
2019-03-16T01:07:28.761Z,20.27
2019-03-16T01:10:00.477Z,19.90
2019-03-16T01:12:34.864Z,17.33
2019-03-16T01:15:06.762Z,20.50
2019-03-16T01:17:38.606Z,21.07
2019-03-16T01:20:10.477Z,20.83
2019-03-16T01:22:44.505Z,18.07
2019-03-16T01:25:16.145Z,17.37
2019-03-16T01:27:45.470Z,19.43
2019-03-16T01:30:17.777Z,24.70
2019-03-16T01:32:49.653Z,23.43
2019-03-16T01:35:21.495Z,20.37
2019-03-16T01:37:53.285Z,27.30
2019-03-16T01:40:25.106Z,22.33
2019-03-16T01:42:56.903Z,21.63
2019-03-16T01:45:28.729Z,21.93
2019-03-16T01:48:00.485Z,20.90
2019-03-16T01:50:32.259Z,21.40
2019-03-16T01:53:04.043Z,19.83
2019-03-16T01:55:36.024Z,18.20
2019-03-16T01:58:07.876Z,22.07
2019-03-16T02:00:39.917Z,21.17
2019-03-16T02:03:11.768Z,22.37
2019-03-16T02:05:43.693Z,20.23
2019-03-16T02:08:16.761Z,19.17
2019-03-16T02:10:48.682Z,17.83
2019-03-16T02:13:20.567Z,21.90
2019-03-16T02:15:52.465Z,17.80
2019-03-16T02:18:24.321Z,22.33
2019-03-16T02:20:56.283Z,19.53
2019-03-16T02:23:30.201Z,17.80
2019-03-16T02:26:02.209Z,17.50
2019-03-16T02:28:34.027Z,20.90
2019-03-16T02:31:06.773Z,22.70
2019-03-16T02:33:38.815Z,18.80
2019-03-16T02:36:13.039Z,19.43
2019-03-16T02:38:44.917Z,18.03
2019-03-16T02:41:16.725Z,19.63
2019-03-16T02:43:49.059Z,24.27
2019-03-16T02:46:20.888Z,18.93
2019-03-16T02:48:56.032Z,16.60
2019-03-16T02:51:30.110Z,18.10
2019-03-16T02:54:03.987Z,16.33
2019-03-16T02:56:38.181Z,18.57
2019-03-16T02:59:12.799Z,18.70
2019-03-16T03:01:44.811Z,21.70
2019-03-16T03:04:16.730Z,18.87
2019-03-16T03:06:48.732Z,16.40
2019-03-16T03:09:21.422Z,18.07
2019-03-16T03:11:54.796Z,15.00
2019-03-16T03:14:26.687Z,19.10
2019-03-16T03:16:58.645Z,22.33
2019-03-16T03:19:30.497Z,26.17
2019-03-16T03:22:02.326Z,28.80
2019-03-16T03:24:34.137Z,34.77
2019-03-16T03:27:05.919Z,26.93
2019-03-16T03:29:37.590Z,26.40
2019-03-16T03:32:09.247Z,26.17
2019-03-16T03:34:41.134Z,21.93
2019-03-16T03:37:12.909Z,18.47
2019-03-16T03:39:44.578Z,19.50
2019-03-16T03:42:16.624Z,30.87
2019-03-16T03:44:48.361Z,21.23
2019-03-16T03:47:20.114Z,20.97
2019-03-16T03:49:51.739Z,21.70
2019-03-16T03:52:23.549Z,26.67
2019-03-16T03:54:55.541Z,29.23
2019-03-16T03:57:28.558Z,30.73
2019-03-16T04:00:00.634Z,25.53
2019-03-16T04:02:32.576Z,25.43
2019-03-16T04:05:06.715Z,32.47
2019-03-16T04:07:39.060Z,29.87
2019-03-16T04:10:11.618Z,28.43
2019-03-16T04:12:42.208Z,24.80
2019-03-16T04:15:14.501Z,26.83
2019-03-16T04:17:46.296Z,26.63
2019-03-16T04:20:18.232Z,21.47
2019-03-16T04:22:50.153Z,31.63
2019-03-16T04:25:21.848Z,30.70
2019-03-16T04:27:53.532Z,30.20
2019-03-16T04:30:25.283Z,26.90
2019-03-16T04:32:57.059Z,22.67
2019-03-16T04:35:28.897Z,23.87
2019-03-16T04:38:00.634Z,21.63
2019-03-16T04:40:32.507Z,22.77
2019-03-16T04:43:05.421Z,20.03
2019-03-16T04:45:38.016Z,19.10
2019-03-16T04:48:11.236Z,17.53
2019-03-16T04:50:43.169Z,16.40
2019-03-16T04:53:15.013Z,13.73
2019-03-16T04:55:46.847Z,14.83
2019-03-16T04:58:18.635Z,10.17
2019-03-16T05:00:50.454Z,11.83
2019-03-16T05:03:22.205Z,12.97
2019-03-16T05:05:53.973Z,12.03
2019-03-16T05:08:27.108Z,14.30
2019-03-16T05:10:58.942Z,13.10
2019-03-16T05:13:30.734Z,16.67
2019-03-16T05:16:02.526Z,17.00
2019-03-16T05:18:34.376Z,13.73
2019-03-16T05:21:06.171Z,8.53
2019-03-16T05:23:37.990Z,10.13
2019-03-16T05:26:11.306Z,13.10
2019-03-16T05:28:43.081Z,18.43
2019-03-16T05:31:14.780Z,14.40
2019-03-16T05:33:46.542Z,17.87
2019-03-16T05:36:18.846Z,11.87
2019-03-16T05:38:50.654Z,11.37
2019-03-16T05:41:22.399Z,11.50
2019-03-16T05:43:54.175Z,16.23
2019-03-16T05:46:25.901Z,15.90
2019-03-16T05:48:58.204Z,10.20
2019-03-16T05:51:30.007Z,11.93
2019-03-16T05:54:01.844Z,8.60
2019-03-16T05:56:33.580Z,13.07
2019-03-16T05:59:05.405Z,10.50
2019-03-16T06:01:38.794Z,12.10
2019-03-16T06:04:11.886Z,10.37
2019-03-16T06:06:46.906Z,9.90
2019-03-16T06:09:18.924Z,7.80
2019-03-16T06:11:51.276Z,9.03
2019-03-16T06:14:23.085Z,7.43
2019-03-16T06:16:55.414Z,10.30
2019-03-16T06:19:27.246Z,10.40
2019-03-16T06:21:59.138Z,10.97
2019-03-16T06:24:31.092Z,12.80
2019-03-16T06:27:03.099Z,14.57
2019-03-16T06:29:35.185Z,10.97
2019-03-16T06:32:07.288Z,11.07
2019-03-16T06:34:39.169Z,9.53
2019-03-16T06:37:12.025Z,9.90
2019-03-16T06:39:43.959Z,9.07
2019-03-16T06:42:16.239Z,8.50
2019-03-16T06:44:48.234Z,10.60
2019-03-16T06:47:27.971Z,9.57
2019-03-16T06:50:02.276Z,9.47
2019-03-16T06:52:34.307Z,19.10
2019-03-16T06:55:06.236Z,13.13
2019-03-16T06:57:37.943Z,9.10
2019-03-16T07:00:11.085Z,9.10
2019-03-16T07:02:43.314Z,6.97
2019-03-16T07:05:19.819Z,5.80
2019-03-16T07:07:50.309Z,9.00
2019-03-16T07:10:22.335Z,7.93
2019-03-16T07:12:54.356Z,9.33
2019-03-16T07:15:26.188Z,7.47
2019-03-16T07:17:58.032Z,9.40
2019-03-16T07:20:30.424Z,7.57
2019-03-16T07:23:02.763Z,7.30
2019-03-16T07:25:34.540Z,7.00
2019-03-16T07:28:06.599Z,8.30
2019-03-16T07:30:38.246Z,10.30
2019-03-16T07:33:12.535Z,12.03
2019-03-16T07:35:44.263Z,6.43
2019-03-16T07:38:18.679Z,6.90
2019-03-16T07:40:50.763Z,11.80
2019-03-16T07:43:28.005Z,10.80
2019-03-16T07:45:59.976Z,7.27
2019-03-16T07:48:31.871Z,11.93
2019-03-16T07:51:04.218Z,9.20
2019-03-16T07:53:36.376Z,10.03
2019-03-16T07:56:11.289Z,8.53
2019-03-16T07:58:43.230Z,10.20
2019-03-16T08:01:15.021Z,8.73
2019-03-16T08:03:47.359Z,11.73
2019-03-16T08:06:19.449Z,17.23
2019-03-16T08:08:51.416Z,9.80
2019-03-16T08:11:23.154Z,9.03
2019-03-16T08:13:54.989Z,16.53
2019-03-16T08:16:27.486Z,10.10
2019-03-16T08:18:59.412Z,8.13
2019-03-16T08:21:52.990Z,7.43
2019-03-16T08:24:26.124Z,11.27
2019-03-16T08:26:59.549Z,9.03
2019-03-16T08:29:31.505Z,5.87
2019-03-16T08:32:03.442Z,9.03
2019-03-16T08:34:38.147Z,6.70
2019-03-16T08:37:10.080Z,17.80
2019-03-16T08:42:33.925Z,5.77
2019-03-16T08:45:06.365Z,8.43
2019-03-16T08:47:38.266Z,8.13
2019-03-16T08:50:18.365Z,8.67
2019-03-16T08:52:50.292Z,11.70
2019-03-16T08:55:22.161Z,7.20
2019-03-16T08:58:05.626Z,5.00
2019-03-16T09:00:34.413Z,5.10
2019-03-16T09:03:07.691Z,6.97
2019-03-16T09:05:40.127Z,9.20
2019-03-16T09:08:13.277Z,8.53
2019-03-16T09:10:45.136Z,6.20
2019-03-16T09:13:22.488Z,7.23
2019-03-16T09:15:55.594Z,8.07
2019-03-16T09:18:27.670Z,5.93
2019-03-16T09:20:59.685Z,5.60
2019-03-16T09:23:32.013Z,9.10
2019-03-16T09:26:04.097Z,6.37
2019-03-16T09:28:36.213Z,10.93
2019-03-16T09:31:08.100Z,25.80
2019-03-16T09:33:42.039Z,26.67
2019-03-16T09:36:15.598Z,12.13
2019-03-16T09:38:47.552Z,15.50
2019-03-16T09:41:24.440Z,13.83
2019-03-16T09:43:56.900Z,7.27
2019-03-16T09:46:28.980Z,6.10
2019-03-16T09:49:01.119Z,10.30
2019-03-16T09:51:33.329Z,8.53
2019-03-16T09:54:05.211Z,6.60
2019-03-16T09:56:37.044Z,16.03
2019-03-16T09:59:10.639Z,9.93
2019-03-16T10:01:56.567Z,8.73
2019-03-16T10:04:30.394Z,7.27
2019-03-16T10:07:02.299Z,5.97
2019-03-16T10:09:34.264Z,8.77
2019-03-16T10:12:06.252Z,7.37
2019-03-16T10:14:42.750Z,8.07
2019-03-16T10:17:16.231Z,5.50
2019-03-16T10:19:48.000Z,5.33
2019-03-16T10:22:20.540Z,4.50
2019-03-16T10:24:55.418Z,7.63
2019-03-16T10:27:27.305Z,7.17
2019-03-16T10:30:02.935Z,6.33
2019-03-16T10:32:42.969Z,6.67
2019-03-16T10:35:15.462Z,2.40
2019-03-16T10:37:52.121Z,7.73
2019-03-16T10:40:25.401Z,5.13
2019-03-16T10:42:57.501Z,7.37
2019-03-16T10:48:09.598Z,6.00
2019-03-16T10:50:42.810Z,12.60
2019-03-16T10:53:18.182Z,4.90
2019-03-16T10:55:51.105Z,3.57
2019-03-16T10:58:22.995Z,4.13
2019-03-16T11:00:54.956Z,4.40
2019-03-16T11:03:27.058Z,5.17
2019-03-16T11:06:01.515Z,4.43
2019-03-16T11:08:36.118Z,8.80
2019-03-16T11:11:08.302Z,4.10
2019-03-16T11:13:40.247Z,5.97
2019-03-16T11:16:13.607Z,8.33
2019-03-16T11:18:45.606Z,15.60
2019-03-16T11:21:18.972Z,8.43
2019-03-16T11:23:51.408Z,5.70
2019-03-16T11:26:28.671Z,5.50
2019-03-16T11:29:09.058Z,4.63
2019-03-16T11:31:34.832Z,11.63
2019-03-16T11:34:06.810Z,3.10
2019-03-16T11:36:40.346Z,3.23
2019-03-16T11:39:12.473Z,9.63
2019-03-16T11:41:45.471Z,4.60
2019-03-16T11:44:17.622Z,3.17
2019-03-16T11:46:49.996Z,4.87
2019-03-16T11:49:23.640Z,3.17
2019-03-16T11:51:55.565Z,4.60
2019-03-16T11:54:27.536Z,4.33
2019-03-16T11:56:59.988Z,4.13
2019-03-16T11:59:34.472Z,3.73
2019-03-16T12:02:06.490Z,2.73
2019-03-16T12:04:38.543Z,3.57
2019-03-16T12:07:10.986Z,4.00
2019-03-16T12:09:42.915Z,4.53
2019-03-16T12:12:15.080Z,2.70
2019-03-16T12:14:47.734Z,3.93
2019-03-16T12:17:19.738Z,3.83
2019-03-16T12:19:54.314Z,5.87
2019-03-16T12:22:28.091Z,2.53
2019-03-16T12:25:01.415Z,2.20
2019-03-16T12:27:36.365Z,2.33
2019-03-16T12:30:08.491Z,5.03
2019-03-16T12:32:42.613Z,4.27
2019-03-16T12:35:16.310Z,4.80
2019-03-16T12:37:48.422Z,3.43
2019-03-16T12:40:22.486Z,3.73
2019-03-16T12:42:55.985Z,3.10
2019-03-16T12:45:28.452Z,3.00
2019-03-16T12:48:00.329Z,3.13
2019-03-16T12:50:32.316Z,4.00
2019-03-16T12:53:04.198Z,11.23
2019-03-16T12:55:36.203Z,6.53
2019-03-16T12:58:12.966Z,9.20
2019-03-16T13:00:44.882Z,8.07
2019-03-16T13:03:19.444Z,9.77
2019-03-16T13:05:51.223Z,28.20
2019-03-16T13:08:23.013Z,14.93
2019-03-16T13:10:54.778Z,5.70
2019-03-16T13:13:26.747Z,10.77
2019-03-16T13:15:58.533Z,8.73
2019-03-16T13:18:30.508Z,15.13
2019-03-16T13:21:02.289Z,9.50
2019-03-16T13:23:34.033Z,25.40
2019-03-16T13:26:05.852Z,8.53
2019-03-16T13:28:40.705Z,6.13
2019-03-16T13:31:12.620Z,9.77
2019-03-16T13:33:44.652Z,7.77
2019-03-16T13:36:16.302Z,10.37
2019-03-16T13:38:48.109Z,42.57
2019-03-16T13:41:21.580Z,16.20
2019-03-16T13:43:53.255Z,18.03
2019-03-16T13:46:24.835Z,15.00
2019-03-16T13:48:56.741Z,16.43
2019-03-16T13:51:28.512Z,26.73
2019-03-16T13:54:00.414Z,37.63
2019-03-16T13:56:32.209Z,30.80
2019-03-16T13:59:03.968Z,25.27
2019-03-16T14:01:36.021Z,43.57
2019-03-16T14:04:10.921Z,13.30
2019-03-16T14:06:43.892Z,24.47
2019-03-16T14:09:16.071Z,24.67
2019-03-16T14:11:47.997Z,26.93
2019-03-16T14:14:19.775Z,13.67
2019-03-16T14:16:51.695Z,12.73
2019-03-16T14:19:23.695Z,13.90
2019-03-16T14:21:57.679Z,12.23
2019-03-16T14:24:33.052Z,15.67
2019-03-16T14:27:08.156Z,12.63
2019-03-16T14:29:38.933Z,24.77
2019-03-16T14:32:11.818Z,15.37
2019-03-16T14:34:44.412Z,38.17
2019-03-16T14:37:16.245Z,46.63
2019-03-16T14:39:48.090Z,21.37
2019-03-16T14:42:22.522Z,19.83
2019-03-16T14:44:54.551Z,18.23
2019-03-16T14:47:26.866Z,13.23
2019-03-16T14:50:01.900Z,14.27
2019-03-16T14:52:34.356Z,15.70
2019-03-16T14:55:07.871Z,15.43
2019-03-16T14:57:41.312Z,13.97
2019-03-16T15:00:14.465Z,18.90
2019-03-16T15:02:46.955Z,27.10
2019-03-16T15:05:19.342Z,24.67
2019-03-16T15:07:51.116Z,21.13
2019-03-16T15:10:23.004Z,18.23
2019-03-16T15:12:54.722Z,18.37
2019-03-16T15:15:28.907Z,11.80
2019-03-16T15:18:00.928Z,3.57
2019-03-16T15:20:32.894Z,3.60
2019-03-16T15:23:04.857Z,4.20
2019-03-16T15:25:39.677Z,3.10
2019-03-16T15:30:50.139Z,2.77
2019-03-16T15:33:14.729Z,12.60
2019-03-16T15:35:46.742Z,6.47
2019-03-16T15:38:20.563Z,2.57
2019-03-16T15:40:52.425Z,3.37
2019-03-16T15:43:24.364Z,4.67
2019-03-16T15:45:57.063Z,3.70
2019-03-16T15:48:29.410Z,4.20
2019-03-16T15:51:01.229Z,8.83
2019-03-16T15:53:33.107Z,13.47
2019-03-16T15:56:05.145Z,31.53
2019-03-16T15:58:38.618Z,6.50
2019-03-16T16:01:09.494Z,9.83
2019-03-16T16:03:43.411Z,31.47
2019-03-16T16:06:15.438Z,5.37
2019-03-16T16:08:47.282Z,17.37
2019-03-16T16:11:19.177Z,20.50
2019-03-16T16:13:54.476Z,9.73
2019-03-16T16:16:26.648Z,18.67
2019-03-16T16:18:58.594Z,11.10
2019-03-16T16:21:31.428Z,7.93
2019-03-16T16:24:04.237Z,13.33
2019-03-16T16:26:36.133Z,13.70
2019-03-16T16:29:07.918Z,10.83
2019-03-16T16:31:40.503Z,6.87
2019-03-16T16:34:12.427Z,8.83
2019-03-16T16:36:45.785Z,10.17
2019-03-16T16:39:19.604Z,9.17
2019-03-16T16:41:51.635Z,7.27
2019-03-16T16:44:23.638Z,13.03
2019-03-16T16:46:56.095Z,6.47
2019-03-16T16:49:28.035Z,5.60
2019-03-16T16:51:59.909Z,6.37
2019-03-16T16:54:31.876Z,7.80
2019-03-16T16:57:06.077Z,19.20
2019-03-16T16:59:38.539Z,11.97
2019-03-16T17:02:10.405Z,41.40
2019-03-16T17:04:42.443Z,53.33
2019-03-16T17:07:14.245Z,39.97
2019-03-16T17:09:46.129Z,17.00
2019-03-16T17:12:20.581Z,56.40
2019-03-16T17:14:52.297Z,23.13
2019-03-16T17:17:35.035Z,44.37
2019-03-16T17:19:59.570Z,50.47
2019-03-16T17:22:31.575Z,42.10
2019-03-16T17:25:05.623Z,34.07
2019-03-16T17:27:40.588Z,27.30
2019-03-16T17:30:14.870Z,15.23
2019-03-16T17:32:48.002Z,20.33
2019-03-16T17:35:26.713Z,18.13
2019-03-16T17:37:58.651Z,12.10
2019-03-16T17:40:30.553Z,13.33
2019-03-16T17:43:02.486Z,7.83
2019-03-16T17:45:36.912Z,76.83
2019-03-16T17:48:08.917Z,31.93
2019-03-16T17:50:43.193Z,36.33
2019-03-16T17:53:16.676Z,50.20
2019-03-16T17:55:48.764Z,18.80
2019-03-16T17:58:20.729Z,41.37
2019-03-16T18:00:53.129Z,49.03
2019-03-16T18:03:25.028Z,71.80
2019-03-16T18:05:56.864Z,56.77
2019-03-16T18:08:29.442Z,11.17
2019-03-16T18:11:01.425Z,7.33
2019-03-16T18:13:33.545Z,5.17
2019-03-16T18:16:05.695Z,6.50
2019-03-16T18:18:37.619Z,6.57
2019-03-16T18:21:09.555Z,7.53
2019-03-16T18:23:44.650Z,2.00
2019-03-16T18:26:17.896Z,2.37
2019-03-16T18:28:49.950Z,2.13
2019-03-16T18:31:21.956Z,3.20
2019-03-16T18:33:53.749Z,10.07
2019-03-16T18:36:26.150Z,2.57
2019-03-16T18:39:00.426Z,1.23
2019-03-16T18:41:34.057Z,1.63
2019-03-16T18:44:10.701Z,1.20
2019-03-16T18:46:42.970Z,2.60
2019-03-16T18:49:16.563Z,1.57
2019-03-16T18:51:51.525Z,3.03
2019-03-16T18:54:26.612Z,2.50
2019-03-16T18:56:58.478Z,6.13
2019-03-16T18:59:30.847Z,6.20
2019-03-16T19:02:02.642Z,10.47
2019-03-16T19:04:37.592Z,7.77
2019-03-16T19:07:09.333Z,3.27
2019-03-16T19:09:41.274Z,9.17
2019-03-16T19:12:13.229Z,6.70
2019-03-16T19:14:45.174Z,3.40
2019-03-16T19:17:17.196Z,2.37
2019-03-16T19:19:48.843Z,2.70
2019-03-16T19:22:20.622Z,2.73
2019-03-16T19:24:52.368Z,2.50
2019-03-16T19:27:24.157Z,3.87
2019-03-16T19:29:55.012Z,2.73
2019-03-16T19:32:33.662Z,3.07
2019-03-16T19:35:01.621Z,5.70
2019-03-16T19:37:35.516Z,3.70
2019-03-16T19:40:08.856Z,3.53
2019-03-16T19:42:40.657Z,3.83
2019-03-16T19:45:12.899Z,4.00
2019-03-16T19:47:47.062Z,4.97
2019-03-16T19:50:20.789Z,4.40
2019-03-16T19:52:54.868Z,6.37
2019-03-16T19:55:30.097Z,4.03
2019-03-16T19:58:04.752Z,2.80
2019-03-16T20:00:36.502Z,3.90
2019-03-16T20:03:08.431Z,1.47
2019-03-16T20:05:40.180Z,7.13
2019-03-16T20:08:12.036Z,2.10
2019-03-16T20:10:43.762Z,2.63
2019-03-16T20:13:15.548Z,5.50
2019-03-16T20:15:47.267Z,4.97
2019-03-16T20:18:19.083Z,4.20
2019-03-16T20:20:50.847Z,11.20
2019-03-16T20:23:22.744Z,8.63
2019-03-16T20:25:54.602Z,10.43
2019-03-16T20:28:26.461Z,10.13
2019-03-16T20:31:00.461Z,6.33
2019-03-16T20:33:32.355Z,9.33
2019-03-16T20:36:04.211Z,8.70
2019-03-16T20:38:36.625Z,3.37
2019-03-16T20:41:08.489Z,6.27
2019-03-16T20:43:40.469Z,11.10
2019-03-16T20:46:12.305Z,6.90
2019-03-16T20:48:44.149Z,8.17
2019-03-16T20:51:16.033Z,8.37
2019-03-16T20:53:49.009Z,4.73
2019-03-16T20:56:20.970Z,7.63
2019-03-16T20:58:52.947Z,6.27
2019-03-16T21:01:27.121Z,6.83
2019-03-16T21:03:59.384Z,8.20
2019-03-16T21:06:31.165Z,4.57
2019-03-16T21:11:32.659Z,5.43
2019-03-16T21:14:04.733Z,4.47
2019-03-16T21:16:36.562Z,1.73
2019-03-16T21:19:10.916Z,2.47
2019-03-16T21:21:41.706Z,3.57
2019-03-16T21:24:13.560Z,11.50
2019-03-16T21:26:52.287Z,3.90
2019-03-16T21:29:18.927Z,9.83
2019-03-16T21:31:50.834Z,2.30
2019-03-16T21:34:22.825Z,5.40
2019-03-16T21:36:54.714Z,4.77
2019-03-16T21:39:26.534Z,3.43
2019-03-16T21:42:01.132Z,4.50
2019-03-16T21:44:32.950Z,4.33
2019-03-16T21:47:06.544Z,1.80
2019-03-16T21:49:38.240Z,7.63
2019-03-16T21:52:12.551Z,1.73
2019-03-16T21:54:44.353Z,1.90
2019-03-16T21:57:16.171Z,6.47
2019-03-16T21:59:48.216Z,7.07
2019-03-16T22:02:20.241Z,3.10
2019-03-16T22:04:52.072Z,6.43
2019-03-16T22:07:25.076Z,4.13
2019-03-16T22:09:56.919Z,7.47
2019-03-16T22:12:28.969Z,2.17
2019-03-16T22:15:00.784Z,1.50
2019-03-16T22:17:36.721Z,4.60
2019-03-16T22:20:09.835Z,2.47
2019-03-16T22:22:42.841Z,5.93
2019-03-16T22:25:15.615Z,5.80
2019-03-16T22:27:48.021Z,1.83
2019-03-16T22:30:19.894Z,3.73
2019-03-16T22:32:52.545Z,7.17
2019-03-16T22:35:24.268Z,3.20
2019-03-16T22:37:56.028Z,5.40
2019-03-16T22:40:29.430Z,6.87
2019-03-16T22:43:01.308Z,2.50
2019-03-16T22:45:33.784Z,4.57
2019-03-16T22:48:05.620Z,1.37
2019-03-16T22:50:37.372Z,2.33
2019-03-16T22:53:09.190Z,4.20
2019-03-16T22:55:40.901Z,2.53
2019-03-16T22:58:12.657Z,7.17
2019-03-16T23:00:48.475Z,3.57
2019-03-16T23:03:20.319Z,1.30
2019-03-16T23:05:52.174Z,5.13
2019-03-16T23:08:24.164Z,5.27
2019-03-16T23:10:55.864Z,7.57
2019-03-16T23:13:27.577Z,6.57
2019-03-16T23:15:59.582Z,8.73
2019-03-16T23:18:31.437Z,4.53
2019-03-16T23:21:03.231Z,2.50
2019-03-16T23:23:34.966Z,13.93
2019-03-16T23:26:06.729Z,4.90
2019-03-16T23:28:38.491Z,4.00
2019-03-16T23:31:12.385Z,6.47
2019-03-16T23:33:43.954Z,6.07
2019-03-16T23:36:15.863Z,4.50
2019-03-16T23:38:49.130Z,8.30
2019-03-16T23:41:21.817Z,6.43
2019-03-16T23:43:53.720Z,9.27
2019-03-16T23:46:25.514Z,14.17
2019-03-16T23:48:57.354Z,15.13
2019-03-16T23:51:29.287Z,10.57
2019-03-16T23:54:01.155Z,10.30
2019-03-16T23:56:32.886Z,15.50
2019-03-16T23:59:04.718Z,16.27
